Deer Lodge (38S)
Deer Lodge, MT
Field Elevation: 4692
Lat: 49°23.27N  Long: 112°45.89W
CTAF/Unicom Freq: 120.0250
   
     For Weather-by-Phone, call 406-846-1177
Weather Advisories
4/24/2014 08:46 Z
Altimeter 29.89" Hg
Wind 010° @ 0 KT
Gusts --
Visibility 10 SM
Temperature 1° C (34° F)
Dewpoint -1° C (30° F)
Relative Humidity 91%
Density Altitude --
Condensation Altitude 5,200 feet
  Wind and Runways
Indicated Runway = 30
History
 
 
More Info
All DigiWx sites map
Weather Radar
NOAA Forecast
 
Airport IQ 5010
(S59) Libby
(6S5) Ravalli County
 
about DigiWx
 
FAA Disclaimer: The data displayed is for advisory purposes only and is not to be used for flight planning or operations. For official data, please call 406-846-1177 to hear the current automated AWOS voice message.
  METAR 38S 240846Z AUTO 01000KT 10SM 01/M01 A2989